Time;durP1;ratioP1;P1;durP2;ratioP2;P2;SDS_P1;SDS_P2;PMS_P1;PMS_P2;Temp;Humidity;BMP_temperature;BMP_pressure;BME280_temperature;BME280_humidity;BME280_pressure;Samples;Min_cycle;Max_cycle;Signal;HPM_P1;HPM_P2
2023/07/13 00:01:19;;;;;;;13.70;7.53;;;24.90;98.60;;;;;;4904314;29;20392;-75
2023/07/13 00:03:47;;;;;;;11.75;7.57;;;24.90;98.40;;;;;;4901755;29;20519;-76
2023/07/13 00:06:14;;;;;;;12.43;7.20;;;24.90;98.50;;;;;;4921852;29;20100;-79
2023/07/13 00:08:42;;;;;;;13.95;7.05;;;25.00;98.50;;;;;;4879322;29;20123;-78
2023/07/13 00:11:10;;;;;;;14.07;7.03;;;25.10;98.30;;;;;;4903214;29;20134;-79
2023/07/13 00:13:39;;;;;;;13.20;6.18;;;25.10;98.00;;;;;;4918329;29;20056;-77
2023/07/13 00:16:07;;;;;;;11.88;6.72;;;24.90;98.30;;;;;;4902081;29;20044;-78
2023/07/13 00:18:34;;;;;;;15.40;7.78;;;24.90;98.80;;;;;;4902356;29;20067;-77
2023/07/13 00:21:10;;;;;;;13.73;7.95;;;25.00;98.50;;;;;;4903156;29;20108;-77
2023/07/13 00:23:40;;;;;;;10.00;5.70;;;24.90;98.70;;;;;;4922091;29;20048;-78
2023/07/13 00:26:11;;;;;;;14.13;6.00;;;24.60;98.70;;;;;;4924640;29;20048;-77
2023/07/13 00:28:55;;;;;;;13.57;5.50;;;24.50;98.40;;;;;;4884575;29;20029;-76
2023/07/13 00:31:22;;;;;;;8.15;5.25;;;24.50;97.60;;;;;;4901111;29;20051;-77
2023/07/13 00:33:53;;;;;;;10.88;4.95;;;24.40;97.40;;;;;;4894006;29;20041;-81
2023/07/13 00:36:21;;;;;;;9.50;5.43;;;24.40;97.10;;;;;;4904566;29;20136;-79
2023/07/13 00:38:49;;;;;;;9.07;5.20;;;24.20;97.20;;;;;;4921632;29;20036;-81
2023/07/13 00:41:16;;;;;;;6.68;4.43;;;24.30;97.40;;;;;;4886893;29;20071;-79
2023/07/13 00:43:43;;;;;;;10.13;5.18;;;24.20;97.10;;;;;;4913429;29;20050;-78
2023/07/13 00:46:20;;;;;;;8.38;4.50;;;24.30;97.30;;;;;;4902093;29;20119;-80
2023/07/13 00:48:49;;;;;;;10.32;4.63;;;24.30;97.30;;;;;;4901939;29;20052;-80
2023/07/13 00:51:23;;;;;;;12.10;5.03;;;24.20;97.20;;;;;;4901539;29;20052;-76
2023/07/13 00:53:55;;;;;;;11.40;4.70;;;24.40;97.10;;;;;;4902403;29;20767;-78
2023/07/13 00:56:23;;;;;;;7.80;4.35;;;24.40;97.10;;;;;;4903063;29;20047;-80
2023/07/13 00:58:53;;;;;;;;;;;24.40;97.10;;;;;;4919006;29;20087;-75
2023/07/13 01:01:21;;;;;;;8.48;5.07;;;24.40;97.30;;;;;;4900431;29;20434;-77
2023/07/13 01:03:48;;;;;;;9.98;5.47;;;24.40;96.90;;;;;;4918237;29;20047;-78
2023/07/13 01:06:17;;;;;;;8.68;4.88;;;24.30;97.20;;;;;;4917552;29;20044;-75
2023/07/13 01:08:46;;;;;;;9.52;5.10;;;24.30;97.20;;;;;;4916829;29;20044;-77
2023/07/13 01:11:20;;;;;;;8.93;5.40;;;24.40;97.40;;;;;;4916734;29;20044;-77
2023/07/13 01:13:47;;;;;;;9.43;5.07;;;24.30;97.60;;;;;;4899771;29;20040;-76
2023/07/13 01:16:25;;;;;;;11.38;6.30;;;24.10;98.20;;;;;;4916962;29;20423;-75
2023/07/13 01:18:54;;;;;;;11.93;5.35;;;24.40;98.60;;;;;;4905428;29;20044;-77
2023/07/13 01:21:21;;;;;;;12.70;5.78;;;24.50;98.30;;;;;;4899921;29;20107;-78
2023/07/13 01:23:48;;;;;;;10.60;5.97;;;24.30;98.50;;;;;;4917256;29;20036;-79
2023/07/13 01:26:16;;;;;;;15.68;6.65;;;24.20;98.80;;;;;;4900900;29;20547;-79
2023/07/13 01:28:43;;;;;;;10.55;6.20;;;24.00;99.00;;;;;;4901881;29;20032;-79
2023/07/13 01:31:11;;;;;;;10.20;5.60;;;24.00;99.40;;;;;;4918184;29;20064;-76
2023/07/13 01:33:40;;;;;;;15.52;6.80;;;24.00;99.50;;;;;;4896753;29;20040;-81
2023/07/13 01:36:10;;;;;;;12.18;6.10;;;24.00;99.60;;;;;;4910995;29;20419;-80
2023/07/13 01:38:38;;;;;;;12.95;6.45;;;23.90;99.70;;;;;;4918403;29;20098;-78
2023/07/13 01:41:08;;;;;;;11.55;6.30;;;23.90;99.90;;;;;;4917874;29;20103;-79
2023/07/13 01:43:35;;;;;;;9.73;6.40;;;23.90;99.90;;;;;;4901268;29;20059;-79
2023/07/13 01:46:02;;;;;;;10.35;6.30;;;23.70;99.90;;;;;;4918291;29;20036;-80
2023/07/13 01:48:48;;;;;;;10.85;5.88;;;23.60;99.90;;;;;;4899926;29;20531;-79
2023/07/13 01:51:18;;;;;;;8.77;5.38;;;23.60;99.90;;;;;;4901042;29;20108;-82
2023/07/13 01:53:46;;;;;;;10.25;5.60;;;23.70;99.90;;;;;;4900518;29;20512;-79
2023/07/13 01:56:13;;;;;;;10.60;6.03;;;23.60;99.90;;;;;;4901394;29;20036;-79
2023/07/13 01:58:41;;;;;;;11.52;5.93;;;23.70;99.90;;;;;;4900833;29;20427;-78
2023/07/13 02:01:10;;;;;;;9.95;6.28;;;23.70;99.90;;;;;;4885093;29;20055;-79
2023/07/13 02:03:37;;;;;;;9.93;6.07;;;23.50;99.90;;;;;;4881245;29;20104;-78
2023/07/13 02:06:05;;;;;;;8.93;5.65;;;23.40;99.90;;;;;;4916358;29;20047;-81
2023/07/13 02:08:33;;;;;;;11.30;5.93;;;23.50;99.90;;;;;;4900141;29;20127;-79
2023/07/13 02:11:02;;;;;;;12.18;6.63;;;23.40;99.90;;;;;;4917531;29;20092;-80
2023/07/13 02:13:30;;;;;;;11.90;6.35;;;23.40;99.90;;;;;;4900046;29;20048;-79
2023/07/13 02:15:57;;;;;;;10.27;6.78;;;23.60;99.90;;;;;;4917469;29;20044;-79
2023/07/13 02:18:24;;;;;;;11.15;6.38;;;23.50;99.90;;;;;;4900473;29;20064;-80
2023/07/13 02:20:52;;;;;;;12.48;6.55;;;23.50;99.90;;;;;;4900537;29;20075;-78
2023/07/13 02:23:19;;;;;;;9.75;5.57;;;23.60;99.90;;;;;;4917960;29;20056;-79
2023/07/13 02:25:47;;;;;;;12.95;5.53;;;23.50;99.90;;;;;;4882098;29;20507;-79
2023/07/13 02:28:14;;;;;;;10.60;5.18;;;23.40;99.90;;;;;;4892464;29;20044;-78
2023/07/13 02:30:42;;;;;;;9.50;5.80;;;23.30;99.90;;;;;;4897059;29;20040;-78
2023/07/13 02:33:10;;;;;;;10.43;5.28;;;23.40;99.90;;;;;;4913584;29;20039;-78
2023/07/13 02:35:37;;;;;;;11.35;5.97;;;23.20;99.90;;;;;;4910445;29;20128;-79
2023/07/13 02:38:04;;;;;;;14.57;5.97;;;23.20;99.90;;;;;;4887055;29;20032;-78
2023/07/13 02:40:33;;;;;;;9.00;5.30;;;23.20;99.90;;;;;;4918284;29;20119;-78
2023/07/13 02:43:00;;;;;;;10.70;5.63;;;23.30;99.90;;;;;;4917624;29;20060;-76
2023/07/13 02:45:28;;;;;;;10.43;5.05;;;23.20;99.90;;;;;;4900895;29;20099;-77
2023/07/13 02:47:55;;;;;;;9.88;5.00;;;23.10;99.90;;;;;;4917218;29;20048;-79
2023/07/13 02:50:22;;;;;;;12.88;5.00;;;23.00;99.90;;;;;;4917400;29;20032;-79
2023/07/13 02:52:50;;;;;;;8.85;4.97;;;22.90;99.90;;;;;;4916629;29;20055;-78
2023/07/13 02:55:17;;;;;;;8.63;5.60;;;22.80;99.90;;;;;;4900862;29;20071;-77
2023/07/13 02:57:44;;;;;;;9.52;5.32;;;22.90;99.90;;;;;;4917031;29;20036;-77
2023/07/13 03:00:12;;;;;;;12.15;5.38;;;22.90;99.90;;;;;;4925100;29;20067;-77
2023/07/13 03:02:39;;;;;;;8.45;5.40;;;22.80;99.90;;;;;;4917212;29;20084;-79
2023/07/13 03:05:07;;;;;;;9.93;4.97;;;22.80;99.90;;;;;;4915068;29;20044;-78
2023/07/13 03:07:35;;;;;;;9.18;5.15;;;22.70;99.90;;;;;;4918605;29;20068;-77
2023/07/13 03:10:02;;;;;;;8.07;5.25;;;22.80;99.90;;;;;;4920062;29;20107;-79
2023/07/13 03:12:29;;;;;;;7.55;5.10;;;22.90;99.90;;;;;;4903009;29;20468;-80
2023/07/13 03:14:58;;;;;;;9.85;5.43;;;22.90;99.90;;;;;;4921185;29;20472;-79
2023/07/13 03:17:25;;;;;;;7.85;5.07;;;22.90;99.90;;;;;;4896731;29;20384;-79
2023/07/13 03:19:52;;;;;;;8.98;5.00;;;22.80;99.90;;;;;;4901923;29;20043;-78
2023/07/13 03:22:20;;;;;;;10.73;5.32;;;22.70;99.90;;;;;;4883695;29;20104;-76
2023/07/13 03:24:48;;;;;;;11.00;5.00;;;22.70;99.90;;;;;;4902444;29;20111;-79
2023/07/13 03:27:17;;;;;;;9.98;4.97;;;22.60;99.90;;;;;;4920373;29;20123;-76
2023/07/13 03:29:44;;;;;;;9.95;5.55;;;22.70;99.90;;;;;;4901700;29;20036;-78
2023/07/13 03:32:12;;;;;;;9.88;5.00;;;22.60;99.90;;;;;;4902402;29;20052;-79
2023/07/13 03:34:39;;;;;;;10.50;5.30;;;22.50;99.90;;;;;;4902151;29;20068;-78
2023/07/13 03:37:06;;;;;;;8.48;4.80;;;22.50;99.90;;;;;;4901043;29;20036;-78
2023/07/13 03:39:33;;;;;;;11.55;5.75;;;22.70;99.90;;;;;;4894475;29;20044;-78
2023/07/13 03:42:01;;;;;;;11.65;6.40;;;22.80;99.90;;;;;;4901956;29;20040;-77
2023/07/13 03:44:28;;;;;;;10.25;5.32;;;22.90;99.90;;;;;;4916701;29;20040;-79
2023/07/13 03:46:56;;;;;;;8.50;4.90;;;22.70;99.90;;;;;;4901934;29;20071;-80
2023/07/13 03:49:23;;;;;;;8.68;4.70;;;22.80;99.90;;;;;;4918836;29;20041;-78
2023/07/13 03:51:50;;;;;;;13.13;5.60;;;22.90;99.90;;;;;;4902438;29;20184;-79
2023/07/13 03:54:20;;;;;;;13.63;5.60;;;23.20;99.90;;;;;;4887968;29;20040;-78
2023/07/13 03:56:48;;;;;;;11.98;5.35;;;23.10;99.90;;;;;;4902365;29;20369;-78
2023/07/13 03:59:15;;;;;;;8.90;5.50;;;23.10;99.90;;;;;;4918253;29;20048;-78
2023/07/13 04:01:44;;;;;;;11.63;5.20;;;23.10;99.90;;;;;;4918976;29;20135;-77
2023/07/13 04:04:11;;;;;;;11.85;5.95;;;23.00;99.90;;;;;;4901402;29;20052;-77
2023/07/13 04:06:39;;;;;;;10.70;5.63;;;23.00;99.90;;;;;;4919744;29;20101;-77
2023/07/13 04:09:06;;;;;;;9.10;5.50;;;23.00;99.90;;;;;;4904547;29;20076;-77
2023/07/13 04:11:36;;;;;;;8.85;5.45;;;23.10;99.90;;;;;;4918902;29;20421;-78
2023/07/13 04:14:04;;;;;;;10.18;5.43;;;23.00;99.90;;;;;;4905491;29;20051;-77
2023/07/13 04:16:35;;;;;;;11.30;5.88;;;23.00;99.90;;;;;;4907373;29;20424;-77
2023/07/13 04:19:03;;;;;;;11.05;5.57;;;23.10;99.90;;;;;;4887336;29;20122;-78
2023/07/13 04:21:31;;;;;;;11.40;6.43;;;23.10;99.90;;;;;;4918706;29;20120;-78
2023/07/13 04:23:58;;;;;;;9.38;5.90;;;23.00;99.90;;;;;;4901534;29;20033;-78
2023/07/13 04:26:26;;;;;;;10.23;5.72;;;23.00;99.90;;;;;;4886991;29;20091;-77
2023/07/13 04:28:53;;;;;;;9.45;5.75;;;23.00;99.90;;;;;;4920113;29;20115;-80
2023/07/13 04:31:22;;;;;;;9.73;5.65;;;23.20;99.90;;;;;;4902575;29;20307;-78
2023/07/13 04:33:50;;;;;;;12.80;6.47;;;23.20;99.90;;;;;;4921580;29;20039;-81
2023/07/13 04:36:18;;;;;;;14.23;6.10;;;23.20;99.90;;;;;;4872559;29;20108;-78
2023/07/13 04:38:46;;;;;;;9.07;5.65;;;23.30;99.90;;;;;;4918429;29;20036;-79
2023/07/13 04:41:17;;;;;;;11.00;5.63;;;23.50;99.90;;;;;;4898630;29;20040;-79
2023/07/13 04:43:44;;;;;;;12.68;5.50;;;23.50;99.90;;;;;;4901964;29;20051;-80
2023/07/13 04:46:13;;;;;;;10.65;5.90;;;23.60;99.90;;;;;;4893404;29;20551;-78
2023/07/13 04:48:41;;;;;;;14.32;6.15;;;23.60;99.90;;;;;;4916176;29;20040;-79
2023/07/13 04:51:09;;;;;;;9.82;6.88;;;23.60;99.90;;;;;;4901942;29;20547;-77
2023/07/13 04:53:36;;;;;;;9.68;5.82;;;23.60;99.90;;;;;;4920371;29;20044;-78
2023/07/13 04:56:04;;;;;;;171.68;112.20;;;23.60;99.90;;;;;;4907615;29;20470;-78
2023/07/13 04:58:33;;;;;;;78.07;49.83;;;23.80;99.90;;;;;;4901827;29;20040;-78
2023/07/13 05:01:05;;;;;;;23.13;16.05;;;23.90;99.90;;;;;;4901074;29;20092;-78
2023/07/13 05:03:33;;;;;;;11.32;8.05;;;23.90;99.90;;;;;;4918428;29;20075;-78
2023/07/13 05:06:09;;;;;;;13.90;5.70;;;24.00;99.90;;;;;;4901693;29;20059;-77
2023/07/13 05:08:37;;;;;;;11.75;5.38;;;24.00;99.30;;;;;;4919611;29;20622;-78
2023/07/13 05:11:07;;;;;;;10.30;5.40;;;24.00;99.20;;;;;;4902053;29;20096;-78
2023/07/13 05:13:35;;;;;;;13.57;4.72;;;24.00;99.00;;;;;;4902127;29;20044;-77
2023/07/13 05:16:08;;;;;;;99.18;73.75;;;24.00;98.90;;;;;;4904950;29;20092;-77
2023/07/13 05:18:36;;;;;;;128.80;84.65;;;23.90;99.20;;;;;;4919368;29;20044;-79
2023/07/13 05:21:09;;;;;;;50.45;35.13;;;24.00;99.20;;;;;;4888986;29;20056;-78
2023/07/13 05:23:37;;;;;;;11.43;7.88;;;23.90;99.50;;;;;;4913497;29;20039;-75
2023/07/13 05:26:05;;;;;;;12.07;5.88;;;23.70;98.70;;;;;;4918383;29;20035;-77
2023/07/13 05:28:36;;;;;;;14.32;8.27;;;23.70;99.00;;;;;;4901523;29;20048;-80
2023/07/13 05:31:04;;;;;;;11.77;6.47;;;23.80;98.90;;;;;;4920365;29;20047;-77
2023/07/13 05:33:32;;;;;;;12.48;5.72;;;24.10;98.30;;;;;;4900517;29;20041;-79
2023/07/13 05:36:00;;;;;;;11.38;5.72;;;24.10;98.00;;;;;;4901549;29;20555;-77
2023/07/13 05:38:29;;;;;;;17.05;5.50;;;24.20;97.30;;;;;;4919597;29;20051;-77
2023/07/13 05:40:58;;;;;;;15.18;5.50;;;24.20;97.60;;;;;;4919618;29;20111;-78
2023/07/13 05:43:28;;;;;;;11.65;6.07;;;24.30;97.70;;;;;;4906104;29;20048;-78
2023/07/13 05:45:56;;;;;;;12.38;5.93;;;24.30;98.30;;;;;;4887242;29;20476;-79
2023/07/13 05:48:24;;;;;;;15.73;5.57;;;24.50;97.80;;;;;;4885886;29;20130;-78
2023/07/13 05:50:51;;;;;;;13.23;5.78;;;24.70;96.40;;;;;;4906497;29;20071;-79
2023/07/13 05:53:19;;;;;;;13.85;6.65;;;24.60;97.60;;;;;;4920331;29;20076;-77
2023/07/13 05:55:49;;;;;;;13.63;7.35;;;24.60;98.90;;;;;;4919159;29;20063;-79
2023/07/13 05:58:17;;;;;;;10.65;6.25;;;24.50;99.70;;;;;;4903583;29;20039;-75
2023/07/13 06:00:48;;;;;;;14.30;9.00;;;24.50;99.80;;;;;;4905458;29;20469;-77
2023/07/13 06:03:16;;;;;;;49.65;30.23;;;24.50;99.90;;;;;;4886494;29;20049;-78
2023/07/13 06:05:43;;;;;;;17.58;10.35;;;24.60;99.80;;;;;;4919634;29;20375;-86
2023/07/13 06:08:11;;;;;;;18.35;9.70;;;24.70;99.90;;;;;;4911495;29;20044;-77
2023/07/13 06:10:39;;;;;;;18.35;9.93;;;24.80;99.90;;;;;;4889752;29;20099;-83
2023/07/13 06:13:07;;;;;;;25.85;9.88;;;25.00;99.40;;;;;;4924923;29;20147;-78
2023/07/13 06:15:34;;;;;;;23.73;8.50;;;25.00;99.70;;;;;;4926348;29;20051;-79
2023/07/13 06:18:02;;;;;;;19.20;8.40;;;25.00;99.30;;;;;;4893151;29;20048;-78
2023/07/13 06:20:30;;;;;;;18.45;8.65;;;25.00;99.10;;;;;;4926697;29;20036;-78
2023/07/13 06:22:57;;;;;;;14.25;8.15;;;24.90;99.20;;;;;;4912844;29;20048;-77
2023/07/13 06:25:26;;;;;;;17.80;8.65;;;25.00;99.50;;;;;;4927184;29;20043;-80
2023/07/13 06:27:57;;;;;;;;;;;25.10;99.40;;;;;;4930076;29;20064;-78
2023/07/13 06:30:24;;;;;;;21.63;8.63;;;25.20;99.10;;;;;;4911733;29;19975;-78
2023/07/13 06:32:54;;;;;;;15.48;7.60;;;25.30;98.50;;;;;;4928751;29;20080;-80
2023/07/13 06:35:21;;;;;;;15.35;7.53;;;25.30;98.60;;;;;;4897620;29;20523;-80
2023/07/13 06:37:48;;;;;;;10.32;6.53;;;25.30;98.10;;;;;;4923541;29;20040;-79
2023/07/13 06:40:17;;;;;;;13.02;7.63;;;25.30;98.40;;;;;;4924312;29;20048;-80
2023/07/13 06:42:44;;;;;;;14.98;7.65;;;25.40;98.20;;;;;;4889805;29;20108;-77
2023/07/13 06:45:11;;;;;;;12.77;7.50;;;25.50;97.80;;;;;;4904993;29;20054;-78
2023/07/13 06:47:42;;;;;;;11.63;6.72;;;25.60;97.50;;;;;;4929256;29;20702;-80
2023/07/13 06:50:23;;;;;;;16.08;7.22;;;25.50;97.50;;;;;;4914639;29;20440;-79
2023/07/13 06:52:53;;;;;;;14.18;6.88;;;25.60;97.60;;;;;;4925642;29;20052;-81
2023/07/13 06:55:20;;;;;;;11.57;6.28;;;25.60;97.30;;;;;;4909863;29;20538;-80
2023/07/13 06:57:47;;;;;;;14.85;6.85;;;25.70;97.20;;;;;;4926016;29;20464;-80
2023/07/13 07:00:16;;;;;;;12.85;6.82;;;25.80;97.20;;;;;;4926030;29;20107;-79
2023/07/13 07:02:44;;;;;;;14.70;7.32;;;25.80;96.80;;;;;;4926174;29;20044;-81
2023/07/13 07:05:11;;;;;;;12.90;6.78;;;25.90;97.00;;;;;;4927797;29;20040;-80
2023/07/13 07:07:39;;;;;;;12.63;6.35;;;25.90;96.70;;;;;;4922814;29;20158;-80
2023/07/13 07:10:06;;;;;;;12.63;6.68;;;25.90;96.30;;;;;;4906439;29;20130;-79
2023/07/13 07:12:34;;;;;;;10.95;6.38;;;25.90;96.10;;;;;;4907298;29;20044;-79
2023/07/13 07:15:01;;;;;;;13.63;7.40;;;25.80;96.30;;;;;;4906681;29;20036;-81
2023/07/13 07:17:29;;;;;;;16.25;7.55;;;25.90;96.20;;;;;;4923862;29;20068;-80
2023/07/13 07:19:56;;;;;;;11.60;7.45;;;25.90;96.40;;;;;;4923864;29;20349;-79
2023/07/13 07:22:27;;;;;;;13.20;7.38;;;25.90;96.50;;;;;;4922604;29;20040;-80
2023/07/13 07:24:55;;;;;;;15.18;7.47;;;25.90;96.40;;;;;;4921055;29;20036;-81
2023/07/13 07:27:25;;;;;;;12.88;7.47;;;26.10;96.40;;;;;;4927006;29;20388;-79
2023/07/13 07:29:57;;;;;;;19.70;8.27;;;26.20;96.20;;;;;;4907023;29;20379;-80
2023/07/13 07:32:31;;;;;;;14.30;6.35;;;26.20;95.70;;;;;;4927430;29;20040;-80
2023/07/13 07:35:18;;;;;;;;;;;26.20;95.60;;;;;;4906676;29;20039;-78
2023/07/13 07:37:46;;;;;;;14.02;6.75;;;26.30;95.60;;;;;;4907966;29;19930;-82
2023/07/13 07:40:20;;;;;;;11.30;6.90;;;26.30;95.80;;;;;;4921997;29;20083;-81
2023/07/13 07:42:50;;;;;;;11.63;6.93;;;26.30;96.10;;;;;;4922081;29;20044;-81
2023/07/13 07:45:18;;;;;;;12.80;7.05;;;26.40;95.60;;;;;;4924972;29;20036;-80
2023/07/13 07:47:46;;;;;;;14.77;6.80;;;26.50;95.40;;;;;;4922881;29;20040;-80
2023/07/13 07:50:13;;;;;;;15.52;8.18;;;26.50;95.50;;;;;;4905103;29;20039;-79
2023/07/13 07:52:42;;;;;;;14.95;7.10;;;26.50;95.40;;;;;;4889963;29;20048;-79
2023/07/13 07:55:09;;;;;;;14.98;7.63;;;26.60;95.50;;;;;;4906702;29;20060;-79
2023/07/13 07:57:39;;;;;;;10.18;7.07;;;26.60;94.80;;;;;;4906339;29;20058;-80
2023/07/13 08:00:09;;;;;;;;;;;26.60;94.50;;;;;;4895178;29;20060;-79
2023/07/13 08:02:45;;;;;;;17.13;7.82;;;26.70;95.10;;;;;;4924315;29;19919;-80
2023/07/13 08:05:15;;;;;;;14.73;7.60;;;26.80;94.70;;;;;;4924186;29;20060;-81
2023/07/13 08:07:45;;;;;;;;;;;26.80;94.80;;;;;;4924698;29;20032;-80
2023/07/13 08:10:13;;;;;;;11.27;7.38;;;26.90;94.70;;;;;;4925054;29;19933;-78
2023/07/13 08:12:42;;;;;;;13.57;7.78;;;27.00;94.60;;;;;;4929513;29;20043;-81
2023/07/13 08:15:30;;;;;;;13.15;7.28;;;27.10;94.10;;;;;;4921345;29;20043;-83
2023/07/13 08:18:01;;;;;;;;;;;27.10;94.10;;;;;;4928928;29;20048;-77
2023/07/13 08:20:28;;;;;;;15.85;7.65;;;27.20;94.00;;;;;;4904288;29;20002;-79
2023/07/13 08:22:56;;;;;;;12.27;7.32;;;27.20;93.70;;;;;;4907117;29;20043;-79
2023/07/13 08:25:24;;;;;;;14.55;7.10;;;27.20;93.70;;;;;;4923234;29;20043;-80
2023/07/13 08:27:52;;;;;;;17.30;7.38;;;27.20;94.00;;;;;;4926424;29;20035;-81
2023/07/13 08:30:19;;;;;;;14.38;7.22;;;27.30;93.50;;;;;;4927832;29;20032;-82
2023/07/13 08:32:47;;;;;;;12.85;6.90;;;27.40;93.40;;;;;;4923589;29;20043;-82
2023/07/13 08:35:15;;;;;;;11.82;7.28;;;27.40;93.00;;;;;;4906589;29;20044;-80
2023/07/13 08:37:44;;;;;;;12.50;6.70;;;27.50;93.10;;;;;;4924410;29;20051;-80
2023/07/13 08:40:11;;;;;;;14.63;6.82;;;27.50;93.20;;;;;;4923921;29;20036;-77
2023/07/13 08:42:45;;;;;;;11.68;7.18;;;27.50;93.00;;;;;;4907976;29;20137;-76
2023/07/13 08:45:21;;;;;;;10.35;6.40;;;27.60;93.00;;;;;;4894735;29;20072;-80
2023/07/13 08:48:05;;;;;;;10.50;6.35;;;27.70;92.10;;;;;;4900325;29;20123;-81
2023/07/13 08:50:38;;;;;;;14.20;6.78;;;27.80;92.00;;;;;;4909171;29;20048;-82
2023/07/13 08:53:49;;;;;;;11.00;6.47;;;27.90;92.10;;;;;;4911942;29;20086;-81
2023/07/13 08:56:24;;;;;;;10.93;7.20;;;28.00;92.10;;;;;;4889743;29;20040;-81
2023/07/13 08:59:18;;;;;;;9.85;6.93;;;28.00;91.80;;;;;;4922408;29;20078;-76
2023/07/13 09:01:57;;;;;;;13.02;6.90;;;28.00;92.00;;;;;;4902590;29;20062;-79
2023/07/13 09:04:30;;;;;;;12.48;7.05;;;28.10;91.90;;;;;;4923828;29;20115;-79
2023/07/13 09:07:40;;;;;;;12.05;6.78;;;28.10;91.60;;;;;;4923776;29;20139;-79
2023/07/13 09:10:43;;;;;;;12.05;6.35;;;28.30;91.80;;;;;;4920781;29;20115;-81
2023/07/13 09:13:42;;;;;;;11.00;8.10;;;28.40;91.80;;;;;;4841541;29;20044;-78
2023/07/13 09:16:11;;;;;;;10.82;6.35;;;28.40;91.80;;;;;;4874898;29;20068;-75
2023/07/13 09:18:43;;;;;;;13.40;6.90;;;28.50;91.40;;;;;;4920792;29;20380;-79
2023/07/13 09:21:17;;;;;;;11.07;6.18;;;28.70;91.10;;;;;;4902973;29;20047;-77
2023/07/13 09:23:45;;;;;;;13.60;6.70;;;28.80;90.80;;;;;;4901461;29;20115;-78
2023/07/13 09:26:21;;;;;;;11.10;6.47;;;28.70;90.60;;;;;;4920260;29;20082;-81
2023/07/13 09:28:59;;;;;;;10.32;6.53;;;28.80;90.80;;;;;;4904326;29;20395;-79
2023/07/13 09:31:36;;;;;;;11.68;6.30;;;28.90;90.70;;;;;;4905406;29;20119;-79
2023/07/13 09:34:10;;;;;;;11.30;6.88;;;29.10;90.80;;;;;;4924634;29;20055;-78
2023/07/13 09:36:38;;;;;;;12.70;6.60;;;29.10;90.60;;;;;;4911070;29;20036;-78
2023/07/13 09:39:08;;;;;;;10.10;6.28;;;29.30;90.50;;;;;;4902524;29;20088;-79
2023/07/13 09:41:55;;;;;;;10.57;6.45;;;29.30;90.00;;;;;;4919279;29;20052;-78
2023/07/13 09:44:35;;;;;;;14.45;6.35;;;29.30;90.10;;;;;;4921860;29;20048;-78
2023/07/13 09:47:03;;;;;;;10.85;5.85;;;29.20;90.00;;;;;;4910744;29;20040;-76
2023/07/13 09:49:36;;;;;;;11.75;6.75;;;29.30;89.50;;;;;;4894228;29;20040;-80
2023/07/13 09:52:06;;;;;;;9.20;5.88;;;29.40;88.90;;;;;;4895434;29;20053;-78
2023/07/13 09:54:37;;;;;;;10.68;6.18;;;29.60;88.40;;;;;;4903479;29;20041;-77
2023/07/13 09:57:18;;;;;;;9.40;5.63;;;29.70;87.40;;;;;;4904996;29;20039;-76
2023/07/13 09:59:51;;;;;;;10.13;5.75;;;29.70;87.10;;;;;;4902477;29;20449;-79
2023/07/13 10:02:25;;;;;;;9.85;6.10;;;29.70;87.00;;;;;;4901687;29;20460;-77
2023/07/13 10:04:59;;;;;;;9.25;5.55;;;29.80;86.10;;;;;;4900200;29;20033;-78
2023/07/13 10:07:27;;;;;;;11.55;6.82;;;29.90;86.00;;;;;;4885150;29;20051;-76
2023/07/13 10:10:00;;;;;;;10.23;4.68;;;30.00;86.20;;;;;;4885899;29;20036;-77
2023/07/13 10:12:35;;;;;;;12.20;5.82;;;30.00;86.30;;;;;;4921439;29;20100;-79
2023/07/13 10:15:16;;;;;;;8.55;5.25;;;30.10;86.50;;;;;;4923366;29;20697;-77
2023/07/13 10:18:01;;;;;;;8.75;5.30;;;30.30;85.20;;;;;;4909416;29;20075;-76
2023/07/13 10:20:31;;;;;;;10.00;5.85;;;30.50;86.20;;;;;;4910122;29;20044;-77
2023/07/13 10:23:08;;;;;;;10.63;5.70;;;30.60;84.30;;;;;;4892567;29;20059;-79
2023/07/13 10:25:41;;;;;;;11.18;5.43;;;30.60;83.90;;;;;;4896309;29;20091;-80
2023/07/13 10:28:19;;;;;;;9.43;5.07;;;30.50;82.30;;;;;;4917966;29;20060;-79
2023/07/13 10:30:48;;;;;;;9.60;5.70;;;30.60;82.50;;;;;;4920689;29;20042;-79
2023/07/13 10:33:16;;;;;;;10.43;5.33;;;30.60;83.30;;;;;;4904495;29;20048;-78
2023/07/13 10:35:46;;;;;;;9.38;5.20;;;30.70;83.00;;;;;;4910697;29;20052;-80
2023/07/13 10:38:20;;;;;;;8.63;4.95;;;31.10;80.60;;;;;;4909377;29;20499;-78
2023/07/13 10:41:05;;;;;;;8.15;5.05;;;31.10;79.00;;;;;;4908119;29;20040;-79
2023/07/13 10:43:38;;;;;;;10.38;5.10;;;31.00;81.60;;;;;;4889659;29;20103;-79
2023/07/13 10:46:09;;;;;;;9.88;5.40;;;30.80;81.20;;;;;;4908479;29;20040;-76
2023/07/13 10:48:40;;;;;;;13.20;5.30;;;30.70;80.80;;;;;;4923940;29;20047;-79
2023/07/13 10:51:09;;;;;;;8.85;4.78;;;30.90;79.60;;;;;;4906940;29;20041;-76
2023/07/13 10:53:41;;;;;;;8.73;4.65;;;31.00;77.30;;;;;;4921784;29;20060;-79
2023/07/13 10:56:30;;;;;;;9.95;4.80;;;31.00;78.70;;;;;;4891614;29;20059;-76
2023/07/13 10:59:11;;;;;;;9.50;4.90;;;31.20;75.90;;;;;;4910490;29;20209;-80
2023/07/13 11:02:19;;;;;;;9.20;4.63;;;31.70;74.00;;;;;;4921960;29;20459;-76
2023/07/13 11:04:49;;;;;;;11.57;4.65;;;31.70;73.30;;;;;;4912900;29;20051;-80
2023/07/13 11:07:53;;;;;;;10.68;4.80;;;31.60;75.50;;;;;;4898203;29;20051;-77
2023/07/13 11:10:49;;;;;;;7.25;4.40;;;31.60;73.80;;;;;;4908739;29;20043;-77
2023/07/13 11:14:02;;;;;;;10.15;4.57;;;31.50;71.50;;;;;;4919317;29;20072;-77
2023/07/13 11:16:47;;;;;;;7.57;4.78;;;31.20;71.80;;;;;;4917978;29;20050;-79
2023/07/13 11:19:15;;;;;;;8.82;5.18;;;31.30;70.00;;;;;;4919880;29;20036;-80
2023/07/13 11:22:01;;;;;;;8.65;5.20;;;31.60;65.40;;;;;;4926199;29;20044;-80
2023/07/13 11:24:47;;;;;;;7.32;4.60;;;31.90;66.70;;;;;;4905413;29;20080;-77
2023/07/13 11:27:37;;;;;;;6.63;4.50;;;32.10;65.20;;;;;;4916964;29;20047;-77
2023/07/13 11:30:24;;;;;;;7.07;4.03;;;31.80;68.50;;;;;;4926573;29;20140;-77
2023/07/13 11:33:05;;;;;;;8.52;4.13;;;31.80;67.70;;;;;;4908811;29;20488;-76
2023/07/13 11:36:01;;;;;;;7.40;4.10;;;32.20;66.70;;;;;;4923192;29;20036;-81
2023/07/13 11:38:52;;;;;;;7.55;4.45;;;32.30;68.70;;;;;;4923807;29;20091;-83
2023/07/13 11:41:22;;;;;;;9.90;5.30;;;32.50;68.90;;;;;;4896094;29;20048;-78
2023/07/13 11:43:53;;;;;;;6.88;4.50;;;32.40;69.10;;;;;;4918900;29;20036;-83
2023/07/13 11:46:23;;;;;;;7.65;4.75;;;32.30;69.30;;;;;;4906496;29;20072;-76
2023/07/13 11:48:52;;;;;;;9.15;4.25;;;32.40;70.10;;;;;;4889544;29;20092;-78
2023/07/13 11:51:20;;;;;;;8.48;5.00;;;32.40;69.90;;;;;;4906838;29;20048;-75
2023/07/13 11:53:53;;;;;;;7.15;4.55;;;32.50;70.20;;;;;;4900754;29;20048;-81
2023/07/13 11:56:25;;;;;;;8.32;5.57;;;32.50;70.00;;;;;;4915325;29;20049;-78
2023/07/13 11:58:57;;;;;;;8.68;4.43;;;32.60;70.40;;;;;;4928993;29;20060;-77
2023/07/13 12:01:46;;;;;;;6.53;4.35;;;33.00;70.00;;;;;;4927037;29;20096;-79
2023/07/13 12:04:35;;;;;;;8.88;4.30;;;32.90;70.50;;;;;;4910121;29;20089;-80
2023/07/13 12:07:14;;;;;;;8.13;4.75;;;32.40;71.70;;;;;;4924800;29;20072;-76
2023/07/13 12:09:41;;;;;;;10.98;5.00;;;32.70;72.40;;;;;;4920066;29;20068;-76
2023/07/13 12:12:15;;;;;;;9.20;4.80;;;33.00;71.10;;;;;;4884601;29;20052;-77
2023/07/13 12:14:43;;;;;;;11.30;5.20;;;33.50;70.30;;;;;;4903242;29;20044;-76
2023/07/13 12:17:29;;;;;;;7.40;5.10;;;33.80;70.00;;;;;;4885929;29;20048;-76
2023/07/13 12:19:58;;;;;;;6.70;4.40;;;34.10;67.80;;;;;;4902298;29;20122;-76
2023/07/13 12:22:25;;;;;;;9.73;4.75;;;34.30;67.60;;;;;;4923078;29;20044;-77
2023/07/13 12:24:54;;;;;;;10.13;4.95;;;34.30;69.00;;;;;;4904373;29;20043;-79
2023/07/13 12:27:26;;;;;;;8.00;4.20;;;34.40;68.80;;;;;;4920151;29;20072;-77
2023/07/13 12:30:05;;;;;;;8.32;4.82;;;34.30;68.70;;;;;;4920710;29;20040;-77
2023/07/13 12:32:32;;;;;;;7.37;4.60;;;34.20;68.20;;;;;;4898806;29;20047;-76
2023/07/13 12:35:18;;;;;;;8.98;4.60;;;34.30;68.70;;;;;;4889033;29;20451;-78
2023/07/13 12:37:51;;;;;;;9.85;4.45;;;34.30;68.70;;;;;;4919769;29;20040;-77
2023/07/13 12:40:22;;;;;;;;;;;34.20;69.50;;;;;;4908654;29;20048;-73
2023/07/13 12:42:51;;;;;;;7.70;4.47;;;34.30;68.80;;;;;;4919172;29;19919;-77
2023/07/13 12:46:01;;;;;;;9.77;5.00;;;34.30;69.10;;;;;;4909113;29;20096;-83
2023/07/13 12:48:29;;;;;;;7.65;4.30;;;34.60;69.20;;;;;;4902842;29;20499;-78
2023/07/13 12:51:14;;;;;;;8.15;4.78;;;34.70;69.40;;;;;;4885609;29;20043;-75
2023/07/13 12:53:48;;;;;;;7.03;4.47;;;34.70;69.10;;;;;;4918356;29;20067;-79
2023/07/13 12:56:22;;;;;;;7.47;5.03;;;34.60;68.40;;;;;;4917453;29;20043;-80
2023/07/13 12:59:02;;;;;;;11.05;4.38;;;34.40;69.40;;;;;;4906774;29;20100;-78
2023/07/13 13:01:34;;;;;;;7.35;4.57;;;34.40;70.10;;;;;;4922843;29;20044;-81
2023/07/13 13:04:08;;;;;;;8.65;4.60;;;34.70;69.10;;;;;;4885352;29;20484;-77